createdAt,value
2018-07-12T00:02:24.817Z,100.00
2018-07-12T00:04:52.868Z,100.00
2018-07-12T00:07:20.721Z,100.00
2018-07-12T00:09:48.581Z,100.00
2018-07-12T00:12:16.432Z,100.00
2018-07-12T00:14:44.251Z,100.00
2018-07-12T00:17:12.098Z,100.00
2018-07-12T00:19:39.949Z,100.00
2018-07-12T00:22:07.879Z,100.00
2018-07-12T00:24:35.731Z,100.00
2018-07-12T00:27:03.792Z,100.00
2018-07-12T00:29:31.645Z,100.00
2018-07-12T00:31:59.506Z,100.00
2018-07-12T00:34:27.350Z,100.00
2018-07-12T00:36:55.184Z,100.00
2018-07-12T00:39:23.034Z,100.00
2018-07-12T00:41:50.996Z,100.00
2018-07-12T00:44:18.829Z,100.00
2018-07-12T00:46:46.811Z,100.00
2018-07-12T00:49:14.646Z,100.00
2018-07-12T00:51:42.491Z,100.00
2018-07-12T00:54:10.317Z,100.00
2018-07-12T00:56:38.154Z,100.00
2018-07-12T00:59:09.341Z,100.00
2018-07-12T01:01:37.181Z,100.00
2018-07-12T01:04:05.037Z,100.00
2018-07-12T01:06:32.854Z,100.00
2018-07-12T01:09:00.909Z,100.00
2018-07-12T01:11:28.804Z,100.00
2018-07-12T01:13:56.646Z,100.00
2018-07-12T01:16:24.717Z,100.00
2018-07-12T01:18:52.656Z,100.00
2018-07-12T01:21:20.516Z,100.00
2018-07-12T01:23:48.349Z,100.00
2018-07-12T01:26:16.240Z,100.00
2018-07-12T01:28:44.088Z,100.00
2018-07-12T01:31:11.933Z,100.00
2018-07-12T01:33:39.780Z,100.00
2018-07-12T01:36:07.628Z,100.00
2018-07-12T01:38:35.469Z,100.00
2018-07-12T01:41:03.309Z,100.00
2018-07-12T01:43:31.130Z,99.97
2018-07-12T01:45:58.993Z,100.00
2018-07-12T01:48:26.864Z,100.00
2018-07-12T01:50:54.707Z,98.83
2018-07-12T01:53:22.565Z,99.63
2018-07-12T01:55:50.428Z,99.46
2018-07-12T01:58:18.243Z,99.62
2018-07-12T02:00:46.451Z,99.38
2018-07-12T02:03:14.503Z,99.05
2018-07-12T02:05:42.476Z,99.35
2018-07-12T02:08:10.644Z,98.63
2018-07-12T02:10:39.337Z,99.34
2018-07-12T02:13:07.841Z,99.29
2018-07-12T02:15:35.684Z,99.27
2018-07-12T02:18:03.523Z,100.00
2018-07-12T02:20:31.353Z,100.00
2018-07-12T02:22:59.217Z,99.79
2018-07-12T02:25:27.022Z,99.25
2018-07-12T02:27:54.838Z,99.63
2018-07-12T02:30:24.628Z,99.79
2018-07-12T02:32:52.425Z,99.46
2018-07-12T02:35:20.248Z,99.70
2018-07-12T02:37:48.124Z,97.48
2018-07-12T02:40:15.958Z,97.14
2018-07-12T02:42:43.797Z,97.92
2018-07-12T02:45:11.612Z,97.97
2018-07-12T02:47:39.672Z,97.88
2018-07-12T02:50:07.519Z,98.66
2018-07-12T02:52:35.355Z,98.16
2018-07-12T02:55:03.218Z,98.04
2018-07-12T02:57:31.058Z,97.93
2018-07-12T02:59:58.918Z,97.72
2018-07-12T03:02:26.741Z,97.92
2018-07-12T03:05:00.712Z,97.48
2018-07-12T03:07:28.558Z,97.19
2018-07-12T03:09:56.410Z,97.27
2018-07-12T03:12:24.678Z,97.76
2018-07-12T03:14:52.526Z,98.00
2018-07-12T03:17:20.382Z,97.42
2018-07-12T03:19:48.228Z,97.54
2018-07-12T03:22:16.046Z,97.87
2018-07-12T03:24:43.875Z,98.05
2018-07-12T03:27:11.721Z,98.07
2018-07-12T03:29:39.619Z,98.44
2018-07-12T03:32:07.476Z,97.72
2018-07-12T03:34:38.927Z,98.17
2018-07-12T03:37:06.805Z,97.57
2018-07-12T03:39:34.639Z,97.87
2018-07-12T03:42:02.473Z,97.74
2018-07-12T03:44:30.290Z,97.49
2018-07-12T03:46:58.125Z,97.28
2018-07-12T03:49:25.976Z,97.18
2018-07-12T03:51:53.921Z,96.94
2018-07-12T03:54:21.737Z,97.02
2018-07-12T03:56:49.625Z,96.84
2018-07-12T03:59:17.476Z,97.06
2018-07-12T04:01:45.310Z,97.39
2018-07-12T04:04:13.156Z,97.50
2018-07-12T04:06:40.985Z,96.96
2018-07-12T04:09:08.844Z,97.27
2018-07-12T04:11:36.673Z,97.00
2018-07-12T04:14:04.502Z,97.11
2018-07-12T04:16:32.349Z,96.95
2018-07-12T04:19:00.331Z,97.36
2018-07-12T04:21:28.187Z,97.58
2018-07-12T04:23:56.027Z,97.79
2018-07-12T04:26:23.846Z,97.41
2018-07-12T04:28:52.090Z,97.44
2018-07-12T04:31:19.944Z,97.42
2018-07-12T04:33:47.769Z,97.39
2018-07-12T04:36:15.708Z,97.30
2018-07-12T04:38:43.560Z,97.62
2018-07-12T04:41:11.408Z,96.95
2018-07-12T04:43:39.249Z,97.07
2018-07-12T04:46:07.081Z,97.07
2018-07-12T04:48:34.944Z,97.00
2018-07-12T04:51:02.773Z,96.90
2018-07-12T04:53:30.609Z,96.72
2018-07-12T04:55:58.511Z,96.35
2018-07-12T04:58:26.395Z,95.57
2018-07-12T05:00:54.297Z,95.60
2018-07-12T05:03:22.249Z,95.11
2018-07-12T05:05:50.907Z,94.90
2018-07-12T05:08:18.785Z,94.87
2018-07-12T05:10:46.611Z,94.41
2018-07-12T05:13:14.500Z,94.82
2018-07-12T05:15:42.335Z,94.47
2018-07-12T05:18:10.166Z,95.24
2018-07-12T05:20:38.015Z,94.64
2018-07-12T05:23:05.884Z,94.27
2018-07-12T05:25:33.702Z,93.72
2018-07-12T05:28:01.533Z,93.49
2018-07-12T05:30:29.507Z,93.22
2018-07-12T05:32:57.477Z,92.83
2018-07-12T05:35:26.847Z,92.70
2018-07-12T05:37:56.044Z,93.20
2018-07-12T05:40:25.457Z,93.13
2018-07-12T05:42:54.680Z,92.63
2018-07-12T05:45:23.865Z,93.04
2018-07-12T05:47:52.779Z,93.33
2018-07-12T05:50:21.741Z,93.31
2018-07-12T05:52:50.705Z,93.15
2018-07-12T05:55:20.129Z,92.98
2018-07-12T05:57:49.054Z,93.79
2018-07-12T06:00:18.599Z,93.32
2018-07-12T06:02:47.857Z,93.80
2018-07-12T06:05:17.044Z,93.45
2018-07-12T06:07:46.253Z,93.17
2018-07-12T06:10:15.226Z,92.86
2018-07-12T06:12:44.134Z,92.96
2018-07-12T06:15:13.066Z,92.80
2018-07-12T06:17:41.958Z,92.23
2018-07-12T06:20:11.156Z,92.12
2018-07-12T06:22:40.092Z,92.40
2018-07-12T06:25:08.993Z,93.06
2018-07-12T06:27:37.900Z,93.27
2018-07-12T06:30:07.072Z,91.54
2018-07-12T06:32:35.905Z,91.95
2018-07-12T06:35:05.067Z,92.12
2018-07-12T06:37:33.985Z,91.82
2018-07-12T06:40:02.943Z,92.15
2018-07-12T06:42:31.901Z,91.36
2018-07-12T06:45:00.747Z,92.05
2018-07-12T06:47:29.932Z,90.98
2018-07-12T06:49:58.833Z,91.87
2018-07-12T06:52:27.780Z,92.12
2018-07-12T06:54:56.698Z,92.42
2018-07-12T06:57:25.604Z,91.15
2018-07-12T06:59:54.512Z,91.41
2018-07-12T07:02:23.467Z,90.52
2018-07-12T07:04:52.375Z,90.45
2018-07-12T07:07:21.298Z,90.18
2018-07-12T07:09:50.217Z,90.72
2018-07-12T07:12:19.106Z,90.38
2018-07-12T07:14:48.097Z,90.53
2018-07-12T07:17:16.972Z,90.49
2018-07-12T07:19:45.863Z,90.67
2018-07-12T07:22:14.814Z,90.28
2018-07-12T07:24:43.707Z,90.15
2018-07-12T07:27:12.672Z,89.29
2018-07-12T07:29:41.583Z,89.62
2018-07-12T07:32:10.516Z,89.83
2018-07-12T07:34:39.424Z,90.70
2018-07-12T07:37:08.311Z,90.12
2018-07-12T07:39:37.244Z,89.59
2018-07-12T07:42:06.172Z,89.39
2018-07-12T07:44:35.101Z,89.34
2018-07-12T07:47:04.009Z,89.67
2018-07-12T07:49:32.942Z,89.40
2018-07-12T07:52:01.911Z,89.13
2018-07-12T07:54:30.828Z,89.15
2018-07-12T07:56:59.770Z,88.96
2018-07-12T07:59:28.607Z,89.69
2018-07-12T08:01:57.523Z,88.71
2018-07-12T08:04:26.429Z,87.44
2018-07-12T08:06:55.386Z,86.56
2018-07-12T08:09:24.309Z,86.67
2018-07-12T08:11:53.674Z,86.52
2018-07-12T08:14:22.629Z,85.18
2018-07-12T08:16:51.523Z,85.97
2018-07-12T08:19:20.754Z,86.45
2018-07-12T08:21:50.556Z,86.97
2018-07-12T08:24:19.872Z,87.00
2018-07-12T08:26:48.788Z,86.50
2018-07-12T08:29:17.794Z,85.29
2018-07-12T08:31:46.764Z,85.06
2018-07-12T08:34:15.645Z,85.76
2018-07-12T08:36:44.566Z,84.91
2018-07-12T08:39:13.565Z,84.83
2018-07-12T08:41:42.468Z,83.79
2018-07-12T08:44:11.355Z,83.34
2018-07-12T08:46:40.253Z,83.48
2018-07-12T08:49:09.161Z,84.58
2018-07-12T08:51:38.070Z,84.35
2018-07-12T08:54:06.986Z,82.70
2018-07-12T08:56:35.877Z,83.15
2018-07-12T08:59:04.788Z,82.10
2018-07-12T09:01:33.701Z,81.30
2018-07-12T09:04:02.583Z,80.91
2018-07-12T09:06:31.511Z,81.08
2018-07-12T09:09:00.441Z,81.13
2018-07-12T09:11:29.553Z,80.50
2018-07-12T09:13:58.468Z,80.49
2018-07-12T09:16:27.383Z,79.92
2018-07-12T09:18:56.310Z,78.90
2018-07-12T09:21:25.191Z,79.34
2018-07-12T09:23:54.097Z,78.48
2018-07-12T09:26:23.065Z,79.08
2018-07-12T09:28:52.263Z,79.53
2018-07-12T09:31:21.384Z,79.29
2018-07-12T09:33:50.292Z,79.82
2018-07-12T09:36:19.239Z,79.24
2018-07-12T09:38:52.740Z,79.15
2018-07-12T09:41:22.565Z,78.58
2018-07-12T09:43:51.878Z,79.12
2018-07-12T09:46:21.083Z,78.61
2018-07-12T09:48:51.178Z,79.51
2018-07-12T09:51:20.090Z,78.79
2018-07-12T09:53:49.056Z,79.22
2018-07-12T09:56:18.064Z,79.39
2018-07-12T09:58:46.838Z,78.04
2018-07-12T10:01:21.194Z,78.76
2018-07-12T10:03:52.418Z,78.50
2018-07-12T10:06:30.478Z,78.40
2018-07-12T10:09:04.397Z,77.95
2018-07-12T10:11:38.691Z,77.40
2018-07-12T10:14:13.081Z,77.20
2018-07-12T10:16:45.322Z,78.21
2018-07-12T10:19:14.248Z,77.59
2018-07-12T10:21:43.190Z,77.54
2018-07-12T10:24:12.117Z,75.99
2018-07-12T10:26:41.031Z,76.74
2018-07-12T10:29:09.917Z,76.74
2018-07-12T10:31:38.803Z,76.30
2018-07-12T10:34:07.896Z,75.23
2018-07-12T10:36:36.797Z,75.36
2018-07-12T10:39:07.913Z,75.64
2018-07-12T10:41:36.795Z,75.80
2018-07-12T10:44:05.954Z,73.65
2018-07-12T10:46:34.876Z,75.04
2018-07-12T10:49:03.807Z,74.55
2018-07-12T10:51:32.714Z,74.67
2018-07-12T10:54:01.668Z,74.21
2018-07-12T10:56:30.573Z,73.57
2018-07-12T10:58:59.577Z,73.37
2018-07-12T11:01:28.447Z,73.46
2018-07-12T11:03:57.338Z,71.70
2018-07-12T11:06:26.457Z,71.62
2018-07-12T11:08:55.397Z,71.00
2018-07-12T11:11:24.452Z,72.36
2018-07-12T11:13:54.019Z,70.61
2018-07-12T11:16:22.941Z,70.53
2018-07-12T11:18:51.857Z,71.33
2018-07-12T11:21:20.794Z,71.35
2018-07-12T11:23:49.719Z,70.92
2018-07-12T11:26:18.629Z,69.13
2018-07-12T11:28:47.533Z,69.44
2018-07-12T11:31:16.457Z,68.81
2018-07-12T11:33:47.539Z,68.85
2018-07-12T11:36:16.516Z,69.28
2018-07-12T11:38:46.141Z,68.33
2018-07-12T11:41:15.214Z,68.13
2018-07-12T11:43:44.177Z,68.47
2018-07-12T11:46:14.321Z,67.34
2018-07-12T11:48:43.803Z,65.87
2018-07-12T11:51:12.911Z,66.32
2018-07-12T11:53:41.819Z,64.24
2018-07-12T11:56:14.211Z,65.21
2018-07-12T11:58:43.399Z,65.11
2018-07-12T12:01:12.339Z,62.95
2018-07-12T12:03:41.237Z,63.01
2018-07-12T12:06:10.222Z,61.50
2018-07-12T12:08:39.297Z,61.99
2018-07-12T12:11:08.235Z,61.33
2018-07-12T12:13:37.126Z,61.28
2018-07-12T12:16:06.078Z,61.75
2018-07-12T12:18:35.524Z,60.75
2018-07-12T12:21:04.424Z,61.59
2018-07-12T12:23:33.346Z,61.33
2018-07-12T12:26:02.261Z,61.81
2018-07-12T12:28:31.153Z,61.06
2018-07-12T12:31:00.060Z,60.65
2018-07-12T12:33:29.466Z,60.59
2018-07-12T12:35:58.382Z,59.91
2018-07-12T12:38:27.319Z,60.39
2018-07-12T12:40:56.209Z,60.94
2018-07-12T12:43:25.098Z,58.43
2018-07-12T12:45:54.061Z,59.08
2018-07-12T12:48:22.969Z,59.47
2018-07-12T12:50:52.337Z,60.62
2018-07-12T12:53:21.192Z,60.08
2018-07-12T12:55:50.095Z,61.07
2018-07-12T12:58:19.198Z,58.66
2018-07-12T13:00:48.320Z,57.54
2018-07-12T13:03:17.244Z,57.78
2018-07-12T13:05:46.136Z,57.33
2018-07-12T13:08:15.052Z,57.82
2018-07-12T13:10:43.941Z,57.52
2018-07-12T13:13:12.834Z,57.79
2018-07-12T13:15:41.759Z,54.51
2018-07-12T13:18:10.650Z,54.55
2018-07-12T13:20:39.551Z,55.91
2018-07-12T13:23:08.488Z,55.17
2018-07-12T13:25:37.508Z,55.55
2018-07-12T13:28:06.399Z,56.01
2018-07-12T13:30:35.257Z,55.76
2018-07-12T13:33:04.188Z,55.28
2018-07-12T13:35:33.077Z,55.41
2018-07-12T13:38:02.207Z,55.23
2018-07-12T13:40:31.157Z,54.90
2018-07-12T13:43:00.097Z,54.48
2018-07-12T13:45:29.350Z,54.96
2018-07-12T13:47:58.333Z,54.62
2018-07-12T13:50:27.271Z,53.96
2018-07-12T13:52:56.166Z,52.81
2018-07-12T13:55:25.081Z,53.06
2018-07-12T13:57:54.035Z,52.82
2018-07-12T14:00:22.914Z,51.81
2018-07-12T14:02:51.817Z,51.57
2018-07-12T14:05:20.760Z,51.72
2018-07-12T14:07:49.751Z,51.65
2018-07-12T14:10:18.716Z,51.28
2018-07-12T14:12:47.642Z,51.83
2018-07-12T14:15:16.555Z,51.68
2018-07-12T14:17:45.580Z,51.87
2018-07-12T14:20:14.499Z,53.10
2018-07-12T14:22:43.404Z,53.25
2018-07-12T14:25:12.320Z,52.64
2018-07-12T14:27:41.233Z,53.99
2018-07-12T14:30:10.147Z,53.50
2018-07-12T14:32:39.060Z,53.64
2018-07-12T14:35:07.994Z,52.40
2018-07-12T14:37:36.903Z,50.76
2018-07-12T14:40:05.813Z,51.04
2018-07-12T14:42:34.698Z,51.74
2018-07-12T14:45:03.598Z,51.90
2018-07-12T14:47:32.495Z,49.84
2018-07-12T14:50:01.513Z,49.64
2018-07-12T14:52:30.425Z,48.03
2018-07-12T14:54:59.341Z,46.30
2018-07-12T14:57:28.217Z,45.93
2018-07-12T14:59:57.128Z,45.77
2018-07-12T15:02:27.018Z,46.85
2018-07-12T15:04:55.911Z,46.82
2018-07-12T15:07:24.809Z,47.35
2018-07-12T15:09:53.709Z,46.17
2018-07-12T15:12:22.606Z,46.00
2018-07-12T15:14:51.549Z,46.65
2018-07-12T15:17:20.478Z,46.18
2018-07-12T15:19:49.401Z,45.79
2018-07-12T15:22:18.515Z,44.36
2018-07-12T15:24:47.416Z,44.63
2018-07-12T15:27:16.319Z,44.89
2018-07-12T15:29:45.240Z,45.62
2018-07-12T15:32:14.346Z,44.65
2018-07-12T15:34:43.516Z,45.34
2018-07-12T15:37:12.655Z,45.20
2018-07-12T15:39:41.838Z,44.59
2018-07-12T15:42:10.750Z,45.14
2018-07-12T15:44:39.748Z,45.02
2018-07-12T15:47:08.650Z,45.02
2018-07-12T15:49:37.545Z,45.72
2018-07-12T15:52:06.730Z,45.00
2018-07-12T15:54:35.880Z,45.24
2018-07-12T15:57:05.215Z,45.05
2018-07-12T15:59:34.386Z,45.44
2018-07-12T16:02:03.296Z,44.85
2018-07-12T16:04:32.247Z,45.97
2018-07-12T16:07:01.201Z,47.04
2018-07-12T16:09:30.038Z,47.63
2018-07-12T16:11:59.276Z,47.16
2018-07-12T16:14:28.429Z,48.01
2018-07-12T16:16:57.573Z,47.66
2018-07-12T16:19:26.716Z,47.17
2018-07-12T16:21:55.701Z,47.36
2018-07-12T16:24:24.638Z,47.28
2018-07-12T16:26:53.602Z,47.26
2018-07-12T16:29:22.582Z,47.66
2018-07-12T16:31:51.613Z,47.98
2018-07-12T16:34:20.499Z,47.79
2018-07-12T16:36:49.436Z,47.41
2018-07-12T16:39:18.448Z,47.31
2018-07-12T16:41:47.652Z,47.96
2018-07-12T16:44:16.546Z,48.06
2018-07-12T16:46:45.446Z,47.74
2018-07-12T16:49:14.531Z,48.13
2018-07-12T16:51:43.449Z,48.58
2018-07-12T16:54:12.400Z,50.43
2018-07-12T16:56:41.317Z,49.02
2018-07-12T16:59:10.206Z,49.67
2018-07-12T17:01:39.281Z,50.78
2018-07-12T17:04:08.210Z,51.64
2018-07-12T17:06:37.107Z,52.91
2018-07-12T17:09:07.269Z,53.40
2018-07-12T17:11:36.414Z,54.38
2018-07-12T17:14:05.437Z,54.34
2018-07-12T17:16:34.262Z,54.95
2018-07-12T17:19:03.148Z,55.70
2018-07-12T17:21:32.045Z,56.75
2018-07-12T17:24:00.928Z,57.73
2018-07-12T17:26:29.873Z,58.42
2018-07-12T17:28:58.967Z,58.57
2018-07-12T17:31:27.884Z,59.03
2018-07-12T17:33:56.802Z,60.29
2018-07-12T17:36:25.727Z,61.42
2018-07-12T17:38:54.645Z,61.02
2018-07-12T17:41:23.568Z,62.14
2018-07-12T17:43:52.476Z,63.63
2018-07-12T17:46:21.552Z,66.22
2018-07-12T17:48:50.492Z,66.73
2018-07-12T17:51:19.351Z,68.35
2018-07-12T17:53:48.253Z,68.14
2018-07-12T17:58:44.927Z,68.80
2018-07-12T18:01:13.803Z,68.33
2018-07-12T18:03:42.717Z,68.90
2018-07-12T18:06:11.688Z,70.34
2018-07-12T18:08:40.604Z,70.35
2018-07-12T18:11:09.500Z,70.35
2018-07-12T18:13:38.435Z,71.71
2018-07-12T18:16:07.317Z,67.76
2018-07-12T18:18:36.233Z,64.08
2018-07-12T18:21:05.482Z,61.98
2018-07-12T18:23:34.378Z,62.63
2018-07-12T18:26:03.309Z,63.03
2018-07-12T18:28:32.225Z,63.42
2018-07-12T18:31:01.156Z,65.06
2018-07-12T18:33:30.078Z,65.33
2018-07-12T18:35:59.039Z,65.37
2018-07-12T18:38:28.168Z,65.79
2018-07-12T18:41:00.273Z,65.62
2018-07-12T18:43:29.259Z,65.19
2018-07-12T18:45:58.378Z,63.52
2018-07-12T18:48:27.305Z,63.59
2018-07-12T18:50:56.355Z,63.58
2018-07-12T18:53:25.284Z,64.35
2018-07-12T18:55:54.206Z,64.44
2018-07-12T18:58:23.580Z,65.28
2018-07-12T19:00:52.479Z,65.44
2018-07-12T19:03:21.393Z,65.17
2018-07-12T19:05:50.276Z,64.64
2018-07-12T19:08:19.249Z,63.06
2018-07-12T19:10:48.165Z,63.17
2018-07-12T19:13:17.431Z,63.58
2018-07-12T19:15:46.373Z,65.26
2018-07-12T19:18:15.648Z,64.46
2018-07-12T19:20:44.805Z,64.67
2018-07-12T19:23:13.994Z,66.23
2018-07-12T19:25:42.941Z,67.18
2018-07-12T19:28:11.837Z,68.22
2018-07-12T19:30:40.821Z,68.51
2018-07-12T19:33:09.708Z,69.35
2018-07-12T19:35:38.753Z,69.80
2018-07-12T19:38:07.689Z,70.40
2018-07-12T19:40:38.533Z,70.88
2018-07-12T19:43:07.443Z,70.68
2018-07-12T19:45:36.349Z,70.93
2018-07-12T19:48:05.260Z,72.00
2018-07-12T19:50:34.260Z,72.28
2018-07-12T19:53:03.310Z,71.45
2018-07-12T19:55:32.223Z,70.86
2018-07-12T19:58:01.184Z,71.21
2018-07-12T20:00:30.708Z,71.21
2018-07-12T20:02:59.625Z,71.00
2018-07-12T20:05:28.525Z,71.24
2018-07-12T20:07:57.445Z,71.06
2018-07-12T20:10:26.725Z,71.45
2018-07-12T20:12:57.424Z,71.55
2018-07-12T20:15:26.548Z,72.15
2018-07-12T20:17:55.470Z,72.98
2018-07-12T20:20:24.388Z,73.34
2018-07-12T20:22:53.300Z,73.59
2018-07-12T20:25:22.325Z,73.90
2018-07-12T20:27:51.391Z,73.68
2018-07-12T20:30:20.486Z,74.08
2018-07-12T20:32:49.366Z,74.25
2018-07-12T20:35:18.276Z,74.13
2018-07-12T20:37:47.256Z,74.28
2018-07-12T20:40:16.242Z,74.98
2018-07-12T20:42:45.529Z,75.52
2018-07-12T20:45:14.869Z,75.35
2018-07-12T20:47:43.963Z,75.53
2018-07-12T20:50:12.867Z,76.05
2018-07-12T20:52:41.751Z,76.00
2018-07-12T20:55:10.710Z,76.46
2018-07-12T20:57:39.545Z,76.02
2018-07-12T21:00:08.460Z,75.55
2018-07-12T21:02:37.393Z,76.09
2018-07-12T21:05:06.545Z,75.91
2018-07-12T21:07:35.465Z,76.06
2018-07-12T21:10:04.575Z,76.59
2018-07-12T21:12:33.499Z,76.42
2018-07-12T21:15:02.386Z,76.71
2018-07-12T21:17:31.266Z,75.82
2018-07-12T21:20:00.369Z,76.57
2018-07-12T21:22:29.257Z,76.93
2018-07-12T21:24:58.266Z,76.81
2018-07-12T21:27:27.238Z,77.03
2018-07-12T21:29:56.225Z,77.59
2018-07-12T21:32:25.115Z,77.44
2018-07-12T21:34:54.065Z,77.94
2018-07-12T21:37:23.107Z,77.87
2018-07-12T21:39:52.139Z,78.30
2018-07-12T21:42:21.048Z,78.17
2018-07-12T21:44:49.968Z,77.96
2018-07-12T21:47:18.854Z,78.38
2018-07-12T21:49:47.792Z,78.86
2018-07-12T21:52:16.994Z,78.81
2018-07-12T21:54:46.111Z,79.17
2018-07-12T21:57:15.015Z,79.41
2018-07-12T21:59:44.162Z,79.18
2018-07-12T22:02:13.195Z,79.37
2018-07-12T22:04:42.084Z,78.96
2018-07-12T22:08:22.739Z,78.96
2018-07-12T22:10:53.052Z,79.47
2018-07-12T22:13:22.751Z,79.41
2018-07-12T22:15:51.768Z,79.43
2018-07-12T22:18:20.739Z,79.14
2018-07-12T22:20:49.637Z,79.10
2018-07-12T22:23:18.537Z,77.91
2018-07-12T22:25:47.516Z,77.72
2018-07-12T22:28:16.453Z,78.45
2018-07-12T22:30:45.536Z,78.41
2018-07-12T22:33:14.439Z,77.39
2018-07-12T22:35:43.378Z,78.13
2018-07-12T22:38:12.400Z,77.61
2018-07-12T22:40:41.370Z,75.23
2018-07-12T22:43:10.423Z,74.24
2018-07-12T22:45:39.616Z,72.96
2018-07-12T22:48:09.077Z,73.04
2018-07-12T22:50:37.922Z,73.63
2018-07-12T22:53:06.831Z,72.49
2018-07-12T22:55:35.781Z,72.39
2018-07-12T22:58:04.780Z,72.76
2018-07-12T23:00:33.676Z,72.23
2018-07-12T23:03:02.815Z,72.56
2018-07-12T23:05:31.749Z,72.64
2018-07-12T23:08:00.692Z,72.54
2018-07-12T23:10:29.980Z,72.95
2018-07-12T23:12:59.438Z,72.57
2018-07-12T23:15:28.825Z,73.37
2018-07-12T23:17:57.973Z,73.62
2018-07-12T23:20:26.887Z,73.83
2018-07-12T23:22:55.836Z,73.92
2018-07-12T23:25:24.774Z,74.27
2018-07-12T23:27:53.656Z,74.43
2018-07-12T23:30:22.601Z,74.41
2018-07-12T23:32:51.540Z,74.74
2018-07-12T23:35:20.445Z,75.01
2018-07-12T23:37:49.345Z,75.00
2018-07-12T23:40:18.252Z,75.26
2018-07-12T23:42:47.404Z,75.38
2018-07-12T23:45:16.391Z,75.28
2018-07-12T23:47:45.229Z,76.07
2018-07-12T23:50:14.156Z,75.57
2018-07-12T23:52:43.046Z,76.26
2018-07-12T23:55:11.961Z,76.42
2018-07-12T23:57:40.860Z,76.71
